Time;durP1;ratioP1;P1;durP2;ratioP2;P2;SDS_P1;SDS_P2;PMS_P1;PMS_P2;Temp;Humidity;BMP_temperature;BMP_pressure;BME280_temperature;BME280_humidity;BME280_pressure;Samples;Min_cycle;Max_cycle;Signal;HPM_P1;HPM_P2
2023/01/18 00:01:41;;;;;;;10.57;5.38;;;;;;;;;;5032906;28;20074;-84
2023/01/18 00:04:06;;;;;;;10.27;5.45;;;;;;;;;;5048666;28;20036;-84
2023/01/18 00:06:31;;;;;;;9.95;5.03;;;;;;;;;;5047887;28;20484;-84
2023/01/18 00:08:57;;;;;;;11.88;6.00;;;;;;;;;;5048311;28;20029;-83
2023/01/18 00:11:22;;;;;;;9.10;4.85;;;;;;;;;;5031672;28;20040;-84
2023/01/18 00:13:48;;;;;;;9.77;5.55;;;;;;;;;;5048284;28;20376;-84
2023/01/18 00:16:16;;;;;;;10.15;4.93;;;;;;;;;;5032522;28;20036;-84
2023/01/18 00:18:42;;;;;;;9.73;5.18;;;;;;;;;;5032101;28;20896;-83
2023/01/18 00:21:09;;;;;;;9.70;5.43;;;;;;;;;;5031384;28;20107;-84
2023/01/18 00:23:35;;;;;;;8.85;4.90;;;;;;;;;;5047544;28;20084;-84
2023/01/18 00:26:07;;;;;;;10.20;4.75;;;;;;;;;;5028790;28;20041;-83
2023/01/18 00:28:32;;;;;;;7.18;4.13;;;;;;;;;;5048410;28;20127;-84
2023/01/18 00:30:58;;;;;;;10.70;5.10;;;;;;;;;;5045025;28;20127;-83
2023/01/18 00:33:24;;;;;;;9.93;4.93;;;;;;;;;;5035955;28;20036;-83
2023/01/18 00:35:58;;;;;;;8.80;4.40;;;;;;;;;;5047423;28;20043;-83
2023/01/18 00:38:25;;;;;;;6.85;4.25;;;;;;;;;;5026684;28;20117;-83
2023/01/18 00:40:50;;;;;;;9.85;4.70;;;;;;;;;;5030807;28;20170;-83
2023/01/18 00:46:00;;;;;;;7.82;4.43;;;;;;;;;;5050374;28;20455;-84
2023/01/18 00:48:25;;;;;;;9.27;4.20;;;;;;;;;;5032009;28;20036;-84
2023/01/18 00:50:50;;;;;;;9.40;4.47;;;;;;;;;;5031567;28;20045;-83
2023/01/18 00:53:16;;;;;;;10.45;4.70;;;;;;;;;;5034690;28;20553;-83
2023/01/18 00:55:41;;;;;;;8.25;4.18;;;;;;;;;;5032030;28;20395;-84
2023/01/18 00:58:06;;;;;;;7.97;4.68;;;;;;;;;;5048003;28;20109;-83
2023/01/18 01:00:32;;;;;;;7.50;4.32;;;;;;;;;;5044880;28;20041;-83
2023/01/18 01:02:57;;;;;;;8.60;4.35;;;;;;;;;;5031233;28;20442;-84
2023/01/18 01:08:15;;;;;;;9.60;4.57;;;;;;;;;;5050542;28;20147;-84
2023/01/18 01:10:45;;;;;;;9.20;4.50;;;;;;;;;;5047102;28;20066;-83
2023/01/18 01:26:50;;;;;;;9.13;4.63;;;;;;;;;;5049718;28;20080;-83
2023/01/18 01:29:16;;;;;;;8.63;4.57;;;;;;;;;;5030932;28;20116;-82
2023/01/18 01:31:41;;;;;;;10.05;5.20;;;;;;;;;;5030917;28;20051;-83
2023/01/18 01:34:07;;;;;;;10.32;4.80;;;;;;;;;;5046229;28;20492;-83
2023/01/18 01:36:32;;;;;;;9.15;4.55;;;;;;;;;;5046833;28;20053;-83
2023/01/18 01:38:58;;;;;;;8.88;4.68;;;;;;;;;;5029978;28;20040;-83
2023/01/18 01:41:29;;;;;;;10.50;4.68;;;;;;;;;;5030454;28;20631;-83
2023/01/18 01:43:57;;;;;;;10.23;4.82;;;;;;;;;;5024628;28;20474;-84
2023/01/18 01:46:29;;;;;;;9.63;5.05;;;;;;;;;;5046364;28;20736;-83
2023/01/18 01:49:02;;;;;;;9.23;4.97;;;;;;;;;;5046876;28;20518;-83
2023/01/18 01:51:27;;;;;;;8.85;4.75;;;;;;;;;;5041079;28;20120;-83
2023/01/18 01:53:54;;;;;;;8.65;4.68;;;;;;;;;;5034474;28;20119;-83
2023/01/18 01:56:20;;;;;;;8.63;4.57;;;;;;;;;;5034271;28;20029;-82
2023/01/18 01:58:49;;;;;;;12.32;4.78;;;;;;;;;;5026107;28;20703;-82
2023/01/18 02:01:15;;;;;;;13.07;4.93;;;;;;;;;;5028428;28;20086;-82
2023/01/18 02:03:41;;;;;;;11.85;5.07;;;;;;;;;;5046694;28;20426;-82
2023/01/18 02:06:30;;;;;;;9.55;4.90;;;;;;;;;;5045849;28;20040;-82
2023/01/18 02:09:15;;;;;;;11.18;4.93;;;;;;;;;;5047479;28;20159;-82
2023/01/18 02:11:42;;;;;;;13.90;5.90;;;;;;;;;;5063118;28;20523;-82
2023/01/18 02:14:11;;;;;;;12.00;5.82;;;;;;;;;;5024844;28;20028;-82
2023/01/18 02:16:58;;;;;;;12.73;6.15;;;;;;;;;;5028399;28;20504;-82
2023/01/18 02:19:27;;;;;;;12.98;5.45;;;;;;;;;;5046866;28;20527;-82
2023/01/18 02:22:13;;;;;;;10.45;6.00;;;;;;;;;;5063931;28;20040;-83
2023/01/18 02:25:07;;;;;;;13.40;5.50;;;;;;;;;;5029020;28;20438;-83
2023/01/18 02:27:47;;;;;;;10.02;5.95;;;;;;;;;;5045991;28;20503;-83
2023/01/18 02:30:42;;;;;;;13.50;6.30;;;;;;;;;;5025697;28;20389;-84
2023/01/18 02:33:12;;;;;;;11.13;5.72;;;;;;;;;;5041783;28;20363;-83
2023/01/18 02:35:56;;;;;;;11.80;6.03;;;;;;;;;;5025435;28;20393;-84
2023/01/18 02:38:43;;;;;;;11.15;6.30;;;;;;;;;;5025970;28;20048;-84
2023/01/18 02:41:08;;;;;;;11.10;6.22;;;;;;;;;;5035003;28;20116;-85
2023/01/18 02:46:32;;;;;;;10.05;5.63;;;;;;;;;;5056140;28;20040;-84
2023/01/18 02:49:11;;;;;;;10.02;5.50;;;;;;;;;;5041903;28;20517;-84
2023/01/18 02:51:37;;;;;;;11.68;6.10;;;;;;;;;;5023721;28;20514;-84
2023/01/18 02:54:07;;;;;;;14.45;6.50;;;;;;;;;;5035842;28;20116;-84
2023/01/18 02:56:46;;;;;;;10.63;5.80;;;;;;;;;;5042008;28;20094;-84
2023/01/18 02:59:13;;;;;;;11.00;6.10;;;;;;;;;;5020943;28;20036;-84
2023/01/18 03:01:54;;;;;;;11.38;6.32;;;;;;;;;;5058378;28;20608;-84
2023/01/18 03:04:24;;;;;;;11.98;6.20;;;;;;;;;;5025205;28;20497;-84
2023/01/18 03:06:57;;;;;;;12.63;6.03;;;;;;;;;;5015846;28;20506;-84
2023/01/18 03:09:26;;;;;;;12.98;5.47;;;;;;;;;;5022154;28;20033;-84
2023/01/18 03:12:00;;;;;;;11.75;5.85;;;;;;;;;;5041793;28;20041;-84
2023/01/18 03:14:51;;;;;;;11.93;6.00;;;;;;;;;;5014823;28;20041;-84
2023/01/18 03:17:35;;;;;;;11.43;6.25;;;;;;;;;;5023304;28;20063;-84
2023/01/18 03:20:08;;;;;;;10.95;5.95;;;;;;;;;;5043459;28;20526;-85
2023/01/18 03:25:21;;;;;;;13.90;6.75;;;;;;;;;;5041676;28;21022;-84
2023/01/18 03:36:03;;;;;;;12.52;6.32;;;;;;;;;;5041696;28;20044;-86
2023/01/18 03:38:30;;;;;;;12.85;6.40;;;;;;;;;;5041857;28;20048;-83
2023/01/18 03:40:57;;;;;;;18.67;6.88;;;;;;;;;;5041876;28;20060;-82
2023/01/18 03:43:23;;;;;;;12.35;6.80;;;;;;;;;;5037792;28;20037;-82
2023/01/18 03:45:50;;;;;;;11.50;6.25;;;;;;;;;;5040969;28;20415;-82
2023/01/18 03:48:16;;;;;;;11.27;6.55;;;;;;;;;;5041706;28;20473;-82
2023/01/18 03:50:49;;;;;;;13.90;6.65;;;;;;;;;;5042231;28;20036;-83
2023/01/18 03:53:26;;;;;;;12.32;6.10;;;;;;;;;;5024502;28;20029;-82
2023/01/18 03:55:57;;;;;;;13.13;6.30;;;;;;;;;;5015104;28;20048;-83
2023/01/18 03:58:30;;;;;;;15.75;6.57;;;;;;;;;;5013124;28;20037;-82
2023/01/18 04:00:55;;;;;;;12.60;6.10;;;;;;;;;;5024768;28;20392;-82
2023/01/18 04:03:21;;;;;;;11.82;6.10;;;;;;;;;;5041080;28;20025;-82
2023/01/18 04:05:46;;;;;;;11.65;5.95;;;;;;;;;;5024969;28;20037;-83
2023/01/18 04:08:13;;;;;;;12.27;5.90;;;;;;;;;;5025290;28;20033;-85
2023/01/18 04:10:38;;;;;;;11.98;6.50;;;;;;;;;;5020332;28;20049;-83
2023/01/18 04:13:04;;;;;;;11.82;6.15;;;;;;;;;;5041235;28;20078;-82
2023/01/18 04:15:29;;;;;;;12.02;6.10;;;;;;;;;;5039843;28;20067;-83
2023/01/18 04:17:54;;;;;;;13.25;5.90;;;;;;;;;;5041326;28;20041;-82
2023/01/18 04:20:21;;;;;;;14.43;5.82;;;;;;;;;;5024852;28;20082;-83
2023/01/18 04:22:52;;;;;;;11.25;5.75;;;;;;;;;;5041566;28;20041;-84
2023/01/18 04:25:18;;;;;;;10.73;6.07;;;;;;;;;;5024421;28;20571;-83
2023/01/18 04:27:43;;;;;;;12.63;6.65;;;;;;;;;;5021017;28;20049;-83
2023/01/18 04:30:09;;;;;;;10.52;5.70;;;;;;;;;;5024996;28;20034;-83
2023/01/18 04:32:35;;;;;;;11.43;6.20;;;;;;;;;;5026235;28;20037;-84
2023/01/18 04:35:00;;;;;;;11.30;5.70;;;;;;;;;;5023270;28;20037;-84
2023/01/18 04:37:29;;;;;;;10.55;5.88;;;;;;;;;;5014023;28;20059;-84
2023/01/18 04:39:56;;;;;;;10.45;5.38;;;;;;;;;;5025159;28;20397;-85
2023/01/18 04:42:21;;;;;;;10.82;5.53;;;;;;;;;;5028137;28;20036;-83
2023/01/18 04:44:46;;;;;;;12.90;6.00;;;;;;;;;;5015204;28;20515;-84
2023/01/18 04:47:12;;;;;;;10.57;5.97;;;;;;;;;;5010681;28;20056;-84
2023/01/18 04:49:37;;;;;;;10.73;5.68;;;;;;;;;;5028644;28;20119;-84
2023/01/18 04:52:02;;;;;;;11.93;5.70;;;;;;;;;;5014089;28;20072;-84
2023/01/18 04:54:28;;;;;;;15.70;6.15;;;;;;;;;;5013521;28;20416;-84
2023/01/18 04:56:53;;;;;;;12.20;5.55;;;;;;;;;;5012974;28;20048;-84
2023/01/18 04:59:19;;;;;;;11.88;5.97;;;;;;;;;;5013912;28;20034;-83
2023/01/18 05:01:44;;;;;;;12.75;5.43;;;;;;;;;;5030056;28;20037;-84
2023/01/18 05:04:13;;;;;;;11.95;5.75;;;;;;;;;;5032224;28;20057;-85
2023/01/18 05:06:38;;;;;;;11.07;5.93;;;;;;;;;;5016292;28;20047;-82
2023/01/18 05:09:04;;;;;;;9.60;5.47;;;;;;;;;;5015939;28;20034;-83
2023/01/18 05:11:29;;;;;;;10.60;5.53;;;;;;;;;;5025655;28;20328;-83
2023/01/18 05:13:55;;;;;;;11.07;6.00;;;;;;;;;;5015742;28;20139;-82
2023/01/18 05:16:21;;;;;;;11.23;6.03;;;;;;;;;;5020398;28;20481;-83
2023/01/18 05:18:47;;;;;;;12.82;5.70;;;;;;;;;;5026019;28;20048;-82
2023/01/18 05:21:13;;;;;;;9.88;5.25;;;;;;;;;;5029955;28;20041;-83
2023/01/18 05:23:41;;;;;;;11.05;5.72;;;;;;;;;;5013113;28;20120;-83
2023/01/18 05:26:13;;;;;;;10.15;5.32;;;;;;;;;;5016912;28;20078;-83
2023/01/18 05:28:39;;;;;;;9.63;5.28;;;;;;;;;;5038620;28;20060;-83
2023/01/18 05:31:04;;;;;;;9.65;5.00;;;;;;;;;;5027166;28;20087;-85
2023/01/18 05:33:30;;;;;;;10.52;5.07;;;;;;;;;;5026980;28;20037;-84
2023/01/18 05:35:55;;;;;;;10.55;5.10;;;;;;;;;;5040498;28;20086;-84
2023/01/18 05:38:21;;;;;;;11.40;6.05;;;;;;;;;;5024999;28;20102;-84
2023/01/18 05:40:51;;;;;;;10.85;5.00;;;;;;;;;;5021005;28;20128;-85
2023/01/18 05:43:16;;;;;;;9.40;5.30;;;;;;;;;;5034018;28;20055;-84
2023/01/18 05:45:42;;;;;;;8.23;4.72;;;;;;;;;;5025030;28;20037;-83
2023/01/18 05:48:09;;;;;;;10.88;4.82;;;;;;;;;;5043297;28;20623;-83
2023/01/18 05:50:34;;;;;;;9.73;5.07;;;;;;;;;;5021234;28;20037;-83
2023/01/18 05:53:00;;;;;;;11.15;4.72;;;;;;;;;;5036764;28;20103;-84
2023/01/18 05:55:26;;;;;;;7.88;3.90;;;;;;;;;;5043168;28;20041;-83
2023/01/18 05:57:51;;;;;;;10.55;4.30;;;;;;;;;;5030629;28;20159;-82
2023/01/18 06:00:20;;;;;;;7.30;4.18;;;;;;;;;;5026783;28;20070;-82
2023/01/18 06:02:45;;;;;;;7.53;4.10;;;;;;;;;;5030873;28;20044;-84
2023/01/18 06:05:11;;;;;;;7.85;4.43;;;;;;;;;;5043802;28;20041;-84
2023/01/18 06:07:37;;;;;;;8.00;4.70;;;;;;;;;;5034997;28;20123;-85
2023/01/18 06:10:03;;;;;;;7.93;4.43;;;;;;;;;;5021940;28;20044;-85
2023/01/18 06:12:31;;;;;;;9.35;4.65;;;;;;;;;;5026536;28;20439;-85
2023/01/18 06:14:56;;;;;;;8.68;4.60;;;;;;;;;;5042227;28;20118;-84
2023/01/18 06:17:22;;;;;;;10.40;4.82;;;;;;;;;;5020547;28;20495;-85
2023/01/18 06:19:47;;;;;;;9.90;4.80;;;;;;;;;;5026087;28;20088;-85
2023/01/18 06:22:13;;;;;;;9.23;4.63;;;;;;;;;;5026574;28;20039;-85
2023/01/18 06:24:38;;;;;;;11.25;5.32;;;;;;;;;;5043672;28;20253;-84
2023/01/18 06:27:03;;;;;;;11.13;5.40;;;;;;;;;;5042898;28;21103;-84
2023/01/18 06:29:29;;;;;;;9.82;4.97;;;;;;;;;;5033780;28;20041;-84
2023/01/18 06:31:55;;;;;;;10.93;4.95;;;;;;;;;;5030309;28;20086;-84
2023/01/18 06:34:20;;;;;;;9.10;5.00;;;;;;;;;;5045527;28;20514;-84
2023/01/18 06:36:46;;;;;;;8.90;4.93;;;;;;;;;;5034317;28;20045;-85
2023/01/18 06:39:12;;;;;;;10.27;5.22;;;;;;;;;;5035812;28;20040;-83
2023/01/18 06:41:38;;;;;;;10.77;5.07;;;;;;;;;;5043594;28;20044;-84
2023/01/18 06:44:03;;;;;;;9.43;5.20;;;;;;;;;;5044798;28;20194;-82
2023/01/18 06:46:28;;;;;;;8.23;4.50;;;;;;;;;;5028215;28;20032;-83
2023/01/18 06:48:54;;;;;;;7.68;4.43;;;;;;;;;;5045347;28;20033;-80
2023/01/18 06:51:20;;;;;;;10.48;5.10;;;;;;;;;;5044180;28;20032;-81
2023/01/18 06:53:47;;;;;;;11.98;5.20;;;;;;;;;;5034392;28;20059;-81
2023/01/18 06:56:13;;;;;;;9.35;5.15;;;;;;;;;;5030182;28;20415;-83
2023/01/18 06:58:38;;;;;;;10.48;5.28;;;;;;;;;;5027443;28;20044;-82
2023/01/18 07:01:04;;;;;;;9.13;4.50;;;;;;;;;;5028810;28;20102;-82
2023/01/18 07:03:30;;;;;;;9.80;5.15;;;;;;;;;;5037293;28;20043;-82
2023/01/18 07:05:57;;;;;;;11.38;5.20;;;;;;;;;;5023960;28;20032;-82
2023/01/18 07:08:25;;;;;;;10.57;5.07;;;;;;;;;;5045154;28;20051;-82
2023/01/18 07:10:52;;;;;;;10.18;4.90;;;;;;;;;;5033909;28;20055;-82
2023/01/18 07:13:17;;;;;;;13.02;4.65;;;;;;;;;;5029396;28;20067;-82
2023/01/18 07:15:43;;;;;;;9.52;4.68;;;;;;;;;;5028424;28;20067;-82
2023/01/18 07:18:08;;;;;;;8.15;4.78;;;;;;;;;;5062710;28;20094;-82
2023/01/18 07:20:34;;;;;;;8.82;4.25;;;;;;;;;;5033180;28;20041;-82
2023/01/18 07:22:59;;;;;;;8.18;4.40;;;;;;;;;;5028441;28;20040;-82
2023/01/18 07:25:26;;;;;;;9.57;4.78;;;;;;;;;;5043990;28;20043;-82
2023/01/18 07:27:51;;;;;;;8.23;4.23;;;;;;;;;;5044604;28;20838;-82
2023/01/18 07:30:17;;;;;;;8.13;3.97;;;;;;;;;;5044382;28;20271;-82
2023/01/18 07:32:48;;;;;;;9.57;4.10;;;;;;;;;;5045231;28;20585;-82
2023/01/18 07:35:14;;;;;;;7.90;4.55;;;;;;;;;;5043678;28;20036;-80
2023/01/18 07:37:40;;;;;;;7.28;3.92;;;;;;;;;;5045561;28;20051;-82
2023/01/18 07:40:08;;;;;;;7.47;3.58;;;;;;;;;;5044563;28;20037;-82
2023/01/18 07:42:33;;;;;;;7.20;3.80;;;;;;;;;;5061121;28;20040;-82
2023/01/18 07:44:58;;;;;;;7.97;3.60;;;;;;;;;;5044187;28;20036;-82
2023/01/18 07:47:24;;;;;;;10.02;3.95;;;;;;;;;;5027471;28;20335;-82
2023/01/18 07:49:49;;;;;;;6.30;3.30;;;;;;;;;;5044876;28;20446;-82
2023/01/18 07:52:14;;;;;;;6.55;3.25;;;;;;;;;;5027628;28;20040;-82
2023/01/18 07:54:40;;;;;;;6.38;2.67;;;;;;;;;;5045219;28;20412;-82
2023/01/18 07:57:05;;;;;;;7.15;2.90;;;;;;;;;;5044417;28;20402;-82
2023/01/18 07:59:32;;;;;;;8.23;3.10;;;;;;;;;;5026658;28;20045;-82
2023/01/18 08:01:57;;;;;;;4.47;2.27;;;;;;;;;;5027386;28;20052;-83
2023/01/18 08:04:23;;;;;;;6.85;2.30;;;;;;;;;;5044677;28;20040;-82
2023/01/18 08:06:50;;;;;;;7.18;2.70;;;;;;;;;;5025022;28;20040;-82
2023/01/18 08:09:15;;;;;;;7.15;2.47;;;;;;;;;;5027543;28;20040;-82
2023/01/18 08:11:40;;;;;;;8.15;2.88;;;;;;;;;;5047959;28;20401;-82
2023/01/18 08:14:06;;;;;;;5.65;2.40;;;;;;;;;;5047786;28;20051;-83
2023/01/18 08:16:31;;;;;;;6.75;2.70;;;;;;;;;;5030467;28;20170;-82
2023/01/18 08:18:57;;;;;;;7.40;2.30;;;;;;;;;;5031792;28;20041;-83
2023/01/18 08:21:22;;;;;;;4.85;2.15;;;;;;;;;;5047196;28;20041;-82
2023/01/18 08:23:49;;;;;;;6.50;2.22;;;;;;;;;;5031076;28;20040;-82
2023/01/18 08:26:15;;;;;;;4.13;2.00;;;;;;;;;;5035493;28;20469;-82
2023/01/18 08:28:41;;;;;;;8.65;2.40;;;;;;;;;;5047768;28;20052;-81
2023/01/18 08:31:12;;;;;;;4.93;2.20;;;;;;;;;;5019869;28;20041;-81
2023/01/18 08:33:39;;;;;;;6.40;2.53;;;;;;;;;;5047555;28;20866;-81
2023/01/18 08:36:09;;;;;;;5.38;2.20;;;;;;;;;;5047585;28;20400;-81
2023/01/18 08:38:34;;;;;;;7.13;2.60;;;;;;;;;;5047722;28;20519;-82
2023/01/18 08:41:01;;;;;;;7.90;2.28;;;;;;;;;;5030560;28;20040;-81
2023/01/18 08:43:27;;;;;;;6.25;2.33;;;;;;;;;;5023302;28;20035;-81
2023/01/18 08:45:53;;;;;;;5.40;2.70;;;;;;;;;;5047232;28;20041;-81
2023/01/18 08:48:18;;;;;;;6.05;2.38;;;;;;;;;;5026073;28;20117;-82
2023/01/18 08:50:45;;;;;;;6.15;2.20;;;;;;;;;;5036133;28;20039;-81
2023/01/18 08:53:10;;;;;;;6.45;2.65;;;;;;;;;;5031987;28;20040;-82
2023/01/18 08:55:37;;;;;;;4.82;2.25;;;;;;;;;;5031323;28;20495;-81
2023/01/18 08:58:03;;;;;;;4.72;2.38;;;;;;;;;;5030997;28;20036;-81
2023/01/18 09:00:28;;;;;;;5.00;2.15;;;;;;;;;;5028853;28;20043;-81
2023/01/18 09:02:54;;;;;;;6.47;2.35;;;;;;;;;;5031913;28;20106;-81
2023/01/18 09:05:20;;;;;;;7.13;2.35;;;;;;;;;;5062870;28;20036;-81
2023/01/18 09:07:46;;;;;;;6.53;2.20;;;;;;;;;;5045816;28;20122;-81
2023/01/18 09:10:12;;;;;;;4.15;2.20;;;;;;;;;;5030839;28;20056;-81
2023/01/18 09:12:37;;;;;;;6.05;2.30;;;;;;;;;;5065070;28;20487;-81
2023/01/18 09:15:03;;;;;;;5.07;2.08;;;;;;;;;;5035855;28;20561;-81
2023/01/18 09:17:28;;;;;;;7.82;2.50;;;;;;;;;;5046415;28;20032;-81
2023/01/18 09:19:54;;;;;;;5.75;2.33;;;;;;;;;;5029414;28;20404;-81
2023/01/18 09:22:20;;;;;;;7.47;2.30;;;;;;;;;;5029760;28;20033;-82
2023/01/18 09:24:46;;;;;;;5.00;2.00;;;;;;;;;;5047140;28;20423;-82
2023/01/18 09:27:12;;;;;;;5.90;2.20;;;;;;;;;;5047068;28;20048;-81
2023/01/18 09:29:38;;;;;;;5.72;2.20;;;;;;;;;;5046392;28;20032;-81
2023/01/18 09:32:03;;;;;;;6.20;2.22;;;;;;;;;;5046280;28;20060;-81
2023/01/18 09:34:29;;;;;;;5.05;2.25;;;;;;;;;;5046324;28;20039;-81
2023/01/18 09:36:54;;;;;;;8.52;2.88;;;;;;;;;;5034270;28;20047;-81
2023/01/18 09:39:20;;;;;;;5.90;2.20;;;;;;;;;;5046928;28;20063;-82
2023/01/18 09:41:54;;;;;;;4.20;2.08;;;;;;;;;;5020483;28;20064;-82
2023/01/18 09:44:39;;;;;;;5.68;2.53;;;;;;;;;;5027744;28;20043;-82
2023/01/18 09:47:06;;;;;;;4.18;1.92;;;;;;;;;;5045738;28;20686;-82
2023/01/18 09:49:55;;;;;;;5.07;2.35;;;;;;;;;;5046627;28;20029;-82
2023/01/18 09:52:30;;;;;;;6.88;2.20;;;;;;;;;;5046029;28;20040;-82
2023/01/18 09:55:09;;;;;;;4.30;2.40;;;;;;;;;;5062965;28;20487;-82
2023/01/18 09:58:19;;;;;;;5.93;2.50;;;;;;;;;;5041253;28;20090;-82
2023/01/18 10:01:06;;;;;;;7.07;2.28;;;;;;;;;;5039934;28;20518;-81
2023/01/18 10:03:46;;;;;;;5.68;2.33;;;;;;;;;;5011325;28;20153;-82
2023/01/18 10:06:18;;;;;;;6.03;2.17;;;;;;;;;;4986719;28;20034;-82
2023/01/18 10:08:47;;;;;;;3.85;2.10;;;;;;;;;;4999003;28;20527;-80
2023/01/18 10:11:30;;;;;;;7.00;2.60;;;;;;;;;;4986967;28;20517;-82
2023/01/18 10:14:02;;;;;;;6.05;2.58;;;;;;;;;;4999775;28;20057;-82
2023/01/18 10:16:27;;;;;;;5.03;2.28;;;;;;;;;;4996388;28;20045;-81
2023/01/18 10:18:56;;;;;;;6.90;2.95;;;;;;;;;;5004062;28;20046;-81
2023/01/18 10:21:22;;;;;;;6.75;2.35;;;;;;;;;;4986449;28;20038;-82
2023/01/18 10:24:01;;;;;;;5.80;2.50;;;;;;;;;;5000552;28;20552;-82
2023/01/18 10:26:29;;;;;;;5.55;2.40;;;;;;;;;;5010693;28;20170;-81
2023/01/18 10:29:00;;;;;;;5.45;2.67;;;;;;;;;;4997272;28;20517;-82
2023/01/18 10:31:45;;;;;;;5.95;2.53;;;;;;;;;;4981659;28;20034;-81
2023/01/18 10:34:18;;;;;;;6.50;3.10;;;;;;;;;;4981297;28;20113;-82
2023/01/18 10:36:50;;;;;;;5.63;2.90;;;;;;;;;;5008693;28;20111;-80
2023/01/18 10:39:21;;;;;;;8.20;3.70;;;;;;;;;;4994841;28;20072;-81
2023/01/18 10:41:47;;;;;;;8.60;3.15;;;;;;;;;;5062351;28;20044;-82
2023/01/18 10:44:12;;;;;;;7.63;3.22;;;;;;;;;;5045417;28;20507;-82
2023/01/18 10:46:38;;;;;;;11.55;3.60;;;;;;;;;;5029920;28;20040;-82
2023/01/18 10:49:03;;;;;;;6.47;3.22;;;;;;;;;;5044777;28;20207;-81
2023/01/18 10:51:36;;;;;;;6.57;3.03;;;;;;;;;;5031625;28;20064;-81
2023/01/18 10:54:16;;;;;;;7.32;3.20;;;;;;;;;;5045721;28;20535;-81
2023/01/18 10:56:43;;;;;;;5.97;2.55;;;;;;;;;;5034379;28;20063;-81
2023/01/18 10:59:23;;;;;;;7.13;2.67;;;;;;;;;;5044756;28;20045;-81
2023/01/18 11:01:52;;;;;;;5.85;3.17;;;;;;;;;;5016945;28;20510;-81
2023/01/18 11:04:28;;;;;;;7.03;2.65;;;;;;;;;;5029364;28;20143;-82
2023/01/18 11:06:55;;;;;;;6.97;3.03;;;;;;;;;;5024996;28;20040;-81
2023/01/18 11:09:41;;;;;;;6.45;2.47;;;;;;;;;;5027952;28;20033;-81
2023/01/18 11:12:47;;;;;;;6.82;2.88;;;;;;;;;;5044680;28;20093;-81
2023/01/18 11:15:12;;;;;;;5.70;2.72;;;;;;;;;;4952018;28;20450;-81
2023/01/18 11:18:01;;;;;;;7.05;2.75;;;;;;;;;;4951137;28;20031;-81
2023/01/18 11:20:37;;;;;;;5.65;2.55;;;;;;;;;;4950549;28;20453;-81
2023/01/18 11:23:13;;;;;;;6.40;2.70;;;;;;;;;;4951540;28;20070;-81
2023/01/18 11:25:50;;;;;;;7.10;3.03;;;;;;;;;;4953329;28;20034;-82
2023/01/18 11:28:18;;;;;;;8.80;3.35;;;;;;;;;;4950386;28;20038;-81
2023/01/18 11:30:55;;;;;;;6.38;2.83;;;;;;;;;;4946164;28;20042;-81
2023/01/18 11:33:22;;;;;;;6.60;2.95;;;;;;;;;;4956257;28;20050;-82
2023/01/18 11:35:53;;;;;;;7.15;2.95;;;;;;;;;;4950456;28;20045;-81
2023/01/18 11:38:18;;;;;;;6.75;2.33;;;;;;;;;;4936930;28;20050;-80
2023/01/18 11:40:44;;;;;;;8.95;3.80;;;;;;;;;;4967850;28;20042;-82
2023/01/18 11:43:24;;;;;;;8.57;3.90;;;;;;;;;;4951941;28;20560;-82
2023/01/18 11:45:58;;;;;;;13.77;5.60;;;;;;;;;;4954382;28;20117;-82
2023/01/18 11:48:36;;;;;;;6.00;2.97;;;;;;;;;;4939276;28;20049;-82
2023/01/18 11:51:14;;;;;;;6.95;2.95;;;;;;;;;;4981230;28;20037;-82
2023/01/18 11:53:53;;;;;;;5.85;2.42;;;;;;;;;;5013125;28;20072;-82
2023/01/18 11:56:40;;;;;;;9.05;3.25;;;;;;;;;;5027695;28;20040;-81
2023/01/18 11:59:13;;;;;;;5.93;2.83;;;;;;;;;;5045295;28;20041;-82
2023/01/18 12:01:42;;;;;;;7.28;3.10;;;;;;;;;;5032718;28;20524;-82
2023/01/18 12:04:31;;;;;;;6.07;2.88;;;;;;;;;;5029012;28;20037;-82
2023/01/18 12:07:28;;;;;;;4.97;2.78;;;;;;;;;;5028016;28;20492;-82
2023/01/18 12:09:55;;;;;;;5.78;3.03;;;;;;;;;;5027692;28;20536;-81
2023/01/18 12:12:31;;;;;;;7.10;2.80;;;;;;;;;;5011369;28;20029;-81
2023/01/18 12:15:22;;;;;;;6.20;2.72;;;;;;;;;;5045924;28;20040;-80
2023/01/18 12:17:56;;;;;;;7.03;3.13;;;;;;;;;;5011497;28;20049;-80
2023/01/18 12:20:35;;;;;;;5.75;2.80;;;;;;;;;;5045299;28;20033;-81
2023/01/18 12:23:22;;;;;;;6.55;3.05;;;;;;;;;;5028752;28;20447;-81
2023/01/18 12:25:54;;;;;;;;;;;;;;;;;;5046189;28;20041;-82
2023/01/18 12:28:37;;;;;;;7.32;3.28;;;;;;;;;;5007445;28;19932;-82
2023/01/18 12:31:23;;;;;;;5.43;2.95;;;;;;;;;;5043852;28;20810;-82
2023/01/18 12:33:58;;;;;;;6.80;3.22;;;;;;;;;;5028523;28;20040;-81
2023/01/18 12:36:45;;;;;;;6.85;3.25;;;;;;;;;;5027409;28;20041;-82
2023/01/18 12:39:19;;;;;;;9.60;3.45;;;;;;;;;;5029464;28;20041;-82
2023/01/18 12:41:56;;;;;;;5.80;3.25;;;;;;;;;;5023133;28;20037;-81
2023/01/18 12:44:34;;;;;;;7.40;3.63;;;;;;;;;;5012729;28;20094;-82
2023/01/18 12:47:11;;;;;;;8.30;3.58;;;;;;;;;;5027074;28;20524;-81
2023/01/18 12:49:40;;;;;;;8.30;3.70;;;;;;;;;;5046254;28;20124;-81
2023/01/18 12:52:06;;;;;;;7.53;3.70;;;;;;;;;;5025706;28;20036;-81
2023/01/18 12:54:45;;;;;;;7.15;4.03;;;;;;;;;;5015914;28;20059;-82
2023/01/18 12:57:12;;;;;;;10.23;4.72;;;;;;;;;;5024932;28;20434;-81
2023/01/18 13:00:02;;;;;;;11.07;5.05;;;;;;;;;;5010752;28;20037;-81
2023/01/18 13:02:39;;;;;;;13.02;5.63;;;;;;;;;;5007027;28;20036;-82
2023/01/18 13:05:34;;;;;;;7.90;3.65;;;;;;;;;;5016342;28;20578;-81
2023/01/18 13:08:05;;;;;;;7.72;3.40;;;;;;;;;;5008854;28;20123;-82
2023/01/18 13:10:32;;;;;;;6.03;3.13;;;;;;;;;;5028416;28;20048;-81
2023/01/18 13:12:58;;;;;;;;;;;;;;;;;;5002577;28;20033;-81
2023/01/18 13:16:14;;;;;;;6.65;3.30;;;;;;;;;;5009501;28;19970;-82
2023/01/18 13:18:48;;;;;;;6.72;3.55;;;;;;;;;;4965160;28;20469;-81
2023/01/18 13:21:41;;;;;;;5.85;2.75;;;;;;;;;;4972581;28;20411;-80
2023/01/18 13:24:10;;;;;;;7.15;3.50;;;;;;;;;;5033593;28;20115;-81
2023/01/18 13:26:35;;;;;;;9.88;4.05;;;;;;;;;;5026185;28;20112;-82
2023/01/18 13:29:28;;;;;;;5.60;3.25;;;;;;;;;;5022584;28;20132;-82
2023/01/18 13:31:55;;;;;;;6.65;3.45;;;;;;;;;;5023598;28;20036;-81
2023/01/18 13:34:34;;;;;;;9.27;3.75;;;;;;;;;;5028410;28;20472;-82
2023/01/18 13:37:02;;;;;;;6.60;3.38;;;;;;;;;;5042062;28;20543;-81
2023/01/18 13:39:30;;;;;;;8.55;3.83;;;;;;;;;;5028587;28;20515;-82
2023/01/18 13:42:20;;;;;;;9.65;3.40;;;;;;;;;;5029394;28;20074;-81
2023/01/18 13:44:48;;;;;;;7.90;3.65;;;;;;;;;;5026541;28;20076;-81
2023/01/18 13:47:41;;;;;;;8.65;4.05;;;;;;;;;;5019825;28;20068;-81
2023/01/18 13:50:38;;;;;;;7.72;4.15;;;;;;;;;;5043118;28;20134;-82
2023/01/18 13:53:12;;;;;;;7.25;4.28;;;;;;;;;;5042509;28;20127;-82
2023/01/18 13:55:59;;;;;;;7.55;3.75;;;;;;;;;;5031772;28;20043;-83
2023/01/18 13:58:29;;;;;;;8.88;3.70;;;;;;;;;;5043197;28;20037;-82
2023/01/18 14:01:02;;;;;;;9.55;3.85;;;;;;;;;;5003456;28;20512;-82
2023/01/18 14:03:30;;;;;;;7.32;3.72;;;;;;;;;;5044888;28;20117;-82
2023/01/18 14:05:56;;;;;;;8.05;3.90;;;;;;;;;;5042452;28;20427;-82
2023/01/18 14:08:30;;;;;;;6.32;3.40;;;;;;;;;;5024814;28;20025;-83
2023/01/18 14:11:03;;;;;;;6.55;3.30;;;;;;;;;;5042537;28;20055;-83
2023/01/18 14:13:58;;;;;;;7.07;3.10;;;;;;;;;;5043937;28;20112;-84
2023/01/18 14:16:29;;;;;;;8.27;3.90;;;;;;;;;;5014640;28;20497;-84
2023/01/18 14:19:00;;;;;;;6.82;3.78;;;;;;;;;;5042954;28;20052;-83
2023/01/18 14:21:40;;;;;;;6.72;3.47;;;;;;;;;;5028564;28;20094;-84
2023/01/18 14:24:27;;;;;;;7.88;3.83;;;;;;;;;;5042999;28;20029;-84
2023/01/18 14:26:54;;;;;;;8.60;3.63;;;;;;;;;;5043254;28;20037;-84
2023/01/18 14:29:32;;;;;;;7.05;3.35;;;;;;;;;;5040740;28;20381;-83
2023/01/18 14:31:58;;;;;;;7.55;3.47;;;;;;;;;;5042363;28;20041;-83
2023/01/18 14:34:36;;;;;;;8.82;3.63;;;;;;;;;;5043284;28;20037;-83
2023/01/18 14:37:03;;;;;;;7.07;3.58;;;;;;;;;;5016060;28;20504;-84
2023/01/18 14:39:31;;;;;;;6.60;3.45;;;;;;;;;;5015912;28;20040;-84
2023/01/18 14:41:59;;;;;;;6.13;3.22;;;;;;;;;;5033220;28;20037;-83
2023/01/18 14:44:30;;;;;;;7.53;3.78;;;;;;;;;;5038141;28;20432;-84
2023/01/18 14:46:56;;;;;;;7.15;3.65;;;;;;;;;;5024939;28;20036;-84
2023/01/18 14:49:28;;;;;;;6.68;3.38;;;;;;;;;;5021321;28;20091;-83
2023/01/18 14:51:54;;;;;;;6.95;3.50;;;;;;;;;;5025376;28;20048;-84
2023/01/18 14:54:23;;;;;;;7.22;3.92;;;;;;;;;;5026301;28;20033;-82
2023/01/18 14:56:48;;;;;;;6.03;3.45;;;;;;;;;;5041636;28;20385;-81
2023/01/18 14:59:32;;;;;;;8.70;3.67;;;;;;;;;;5026646;28;20029;-82
2023/01/18 15:02:06;;;;;;;8.88;3.60;;;;;;;;;;5041788;28;20048;-82
2023/01/18 15:04:34;;;;;;;6.47;3.88;;;;;;;;;;5026455;28;20396;-82
2023/01/18 15:06:59;;;;;;;;;;;;;;;;;;5043493;28;20523;-81
2023/01/18 15:09:25;;;;;;;7.53;3.53;;;;;;;;;;5038211;28;19916;-84
2023/01/18 15:11:53;;;;;;;6.72;3.58;;;;;;;;;;5021067;28;20676;-84
2023/01/18 15:14:24;;;;;;;6.53;3.55;;;;;;;;;;5026146;28;20568;-84
2023/01/18 15:16:52;;;;;;;7.78;4.00;;;;;;;;;;5015067;28;20037;-84
2023/01/18 15:19:19;;;;;;;;;;;;;;;;;;5025875;28;20049;-82
2023/01/18 15:21:44;;;;;;;7.68;3.88;;;;;;;;;;5041894;28;19939;-81
2023/01/18 15:24:21;;;;;;;7.32;3.58;;;;;;;;;;5026301;28;20492;-81
2023/01/18 15:26:52;;;;;;;8.73;3.65;;;;;;;;;;5034031;28;20033;-81
2023/01/18 15:29:19;;;;;;;7.63;3.75;;;;;;;;;;5019949;28;20040;-82
2023/01/18 15:31:46;;;;;;;9.35;3.92;;;;;;;;;;5043767;28;20636;-81
2023/01/18 15:34:14;;;;;;;9.35;4.28;;;;;;;;;;5028996;28;20452;-82